createdAt,value
2022-11-08T00:00:40.680Z,88.36
2022-11-08T00:01:44.099Z,88.75
2022-11-08T00:02:49.108Z,88.71
2022-11-08T00:03:52.569Z,89.17
2022-11-08T00:04:56.319Z,88.75
2022-11-08T00:06:17.920Z,88.67
2022-11-08T00:07:38.911Z,88.62
2022-11-08T00:09:01.040Z,88.97
2022-11-08T00:10:22.551Z,88.80
2022-11-08T00:11:43.667Z,89.01
2022-11-08T00:13:05.339Z,88.87
2022-11-08T00:14:09.192Z,88.80
2022-11-08T00:15:12.786Z,88.74
2022-11-08T00:16:16.483Z,88.84
2022-11-08T00:17:23.319Z,88.73
2022-11-08T00:18:27.511Z,88.47
2022-11-08T00:19:31.320Z,88.37
2022-11-08T00:20:36.392Z,88.22
2022-11-08T00:21:39.732Z,88.44
2022-11-08T00:22:43.560Z,88.46
2022-11-08T00:23:47.729Z,88.59
2022-11-08T00:24:53.233Z,88.79
2022-11-08T00:25:56.238Z,88.67
2022-11-08T00:27:00.361Z,88.87
2022-11-08T00:28:03.130Z,88.62
2022-11-08T00:29:07.561Z,88.75
2022-11-08T00:30:12.082Z,88.80
2022-11-08T00:31:17.111Z,88.99
2022-11-08T00:32:22.158Z,88.74
2022-11-08T00:33:26.037Z,88.93
2022-11-08T00:34:28.945Z,89.04
2022-11-08T00:35:32.708Z,88.76
2022-11-08T00:36:35.808Z,88.83
2022-11-08T00:37:43.284Z,88.80
2022-11-08T00:38:47.381Z,88.83
2022-11-08T00:39:51.376Z,88.71
2022-11-08T00:40:54.447Z,88.46
2022-11-08T00:41:59.104Z,88.60
2022-11-08T00:43:01.956Z,88.57
2022-11-08T00:44:06.596Z,88.79
2022-11-08T00:45:09.767Z,88.62
2022-11-08T00:46:13.532Z,88.88
2022-11-08T00:47:18.158Z,88.92
2022-11-08T00:48:21.267Z,88.96
2022-11-08T00:49:25.869Z,88.89
2022-11-08T00:50:28.850Z,88.53
2022-11-08T00:51:33.256Z,88.83
2022-11-08T00:52:36.996Z,88.92
2022-11-08T00:53:40.461Z,89.08
2022-11-08T00:54:45.996Z,88.97
2022-11-08T00:55:48.684Z,88.82
2022-11-08T00:56:52.486Z,88.99
2022-11-08T00:57:59.642Z,89.00
2022-11-08T00:59:04.145Z,88.82
2022-11-08T01:00:10.447Z,89.03
2022-11-08T01:01:14.833Z,89.09
2022-11-08T01:02:18.640Z,88.98
2022-11-08T01:03:21.601Z,88.84
2022-11-08T01:04:26.585Z,88.85
2022-11-08T01:05:29.783Z,88.89
2022-11-08T01:06:33.795Z,88.81
2022-11-08T01:07:38.549Z,88.58
2022-11-08T01:08:44.096Z,89.18
2022-11-08T01:09:49.387Z,88.92
2022-11-08T01:10:53.012Z,88.85
2022-11-08T01:11:57.808Z,88.75
2022-11-08T01:13:03.236Z,88.36
2022-11-08T01:14:06.962Z,88.67
2022-11-08T01:15:10.346Z,88.78
2022-11-08T01:16:16.617Z,88.83
2022-11-08T01:17:20.496Z,88.96
2022-11-08T01:18:23.447Z,88.90
2022-11-08T01:19:27.188Z,88.70
2022-11-08T01:20:30.833Z,89.05
2022-11-08T01:21:35.182Z,89.19
2022-11-08T01:22:37.857Z,89.17
2022-11-08T01:23:42.697Z,88.86
2022-11-08T01:24:45.555Z,88.83
2022-11-08T01:25:51.184Z,89.04
2022-11-08T01:26:54.953Z,88.67
2022-11-08T01:27:58.536Z,88.58
2022-11-08T01:29:02.576Z,88.36
2022-11-08T01:30:06.432Z,88.43
2022-11-08T01:31:12.546Z,88.56
2022-11-08T01:32:15.385Z,88.41
2022-11-08T01:33:19.266Z,88.35
2022-11-08T01:34:22.260Z,88.56
2022-11-08T01:35:26.524Z,88.49
2022-11-08T01:36:33.286Z,88.38
2022-11-08T01:37:36.539Z,88.38
2022-11-08T01:38:40.981Z,88.52
2022-11-08T01:39:43.732Z,88.50
2022-11-08T01:40:49.325Z,88.68
2022-11-08T01:41:54.586Z,88.66
2022-11-08T01:42:57.524Z,88.70
2022-11-08T01:44:01.757Z,88.49
2022-11-08T01:45:05.914Z,88.57
2022-11-08T01:46:35.128Z,88.40
2022-11-08T01:47:39.318Z,88.29
2022-11-08T01:48:44.211Z,88.09
2022-11-08T01:49:48.443Z,88.27
2022-11-08T01:50:51.924Z,88.23
2022-11-08T01:52:03.047Z,88.14
2022-11-08T01:53:07.734Z,87.90
2022-11-08T01:54:14.734Z,88.17
2022-11-08T01:55:22.495Z,87.85
2022-11-08T01:56:27.001Z,88.01
2022-11-08T01:57:36.610Z,88.03
2022-11-08T01:58:40.105Z,88.22
2022-11-08T01:59:46.064Z,88.13
2022-11-08T02:00:49.300Z,88.28
2022-11-08T02:01:53.488Z,88.19
2022-11-08T02:02:59.914Z,88.20
2022-11-08T02:04:03.356Z,88.37
2022-11-08T02:05:25.005Z,88.25
2022-11-08T02:06:29.052Z,88.26
2022-11-08T02:07:33.569Z,88.34
2022-11-08T02:08:39.045Z,88.42
2022-11-08T02:09:45.504Z,88.13
2022-11-08T02:10:51.129Z,88.22
2022-11-08T02:11:55.116Z,88.57
2022-11-08T02:13:03.753Z,88.29
2022-11-08T02:14:09.016Z,88.37
2022-11-08T02:15:12.902Z,88.51
2022-11-08T02:16:17.836Z,88.39
2022-11-08T02:17:20.917Z,88.46
2022-11-08T02:18:27.138Z,88.41
2022-11-08T02:19:37.193Z,88.40
2022-11-08T02:20:45.865Z,88.17
2022-11-08T02:21:52.097Z,87.92
2022-11-08T02:23:00.673Z,87.93
2022-11-08T02:24:09.009Z,88.11
2022-11-08T02:25:12.810Z,88.13
2022-11-08T02:26:16.202Z,88.15
2022-11-08T02:27:20.944Z,88.25
2022-11-08T02:28:24.076Z,88.35
2022-11-08T02:29:31.598Z,88.54
2022-11-08T02:30:34.673Z,88.17
2022-11-08T02:31:39.038Z,87.99
2022-11-08T02:32:42.947Z,88.24
2022-11-08T02:33:48.721Z,88.19
2022-11-08T02:34:53.817Z,88.47
2022-11-08T02:35:59.126Z,88.88
2022-11-08T02:37:02.694Z,89.04
2022-11-08T02:38:06.714Z,88.72
2022-11-08T02:39:11.035Z,88.62
2022-11-08T02:40:15.024Z,88.81
2022-11-08T02:41:17.784Z,88.84
2022-11-08T02:42:22.196Z,88.86
2022-11-08T02:43:25.716Z,88.54
2022-11-08T02:44:30.337Z,88.78
2022-11-08T02:45:34.177Z,88.54
2022-11-08T02:46:37.917Z,88.71
2022-11-08T02:47:41.056Z,88.61
2022-11-08T02:48:45.105Z,88.80
2022-11-08T02:49:48.038Z,88.69
2022-11-08T02:50:51.887Z,88.68
2022-11-08T02:51:55.874Z,88.76
2022-11-08T02:52:58.727Z,88.69
2022-11-08T02:54:03.372Z,88.98
2022-11-08T02:55:08.828Z,88.94
2022-11-08T02:56:13.036Z,88.89
2022-11-08T02:57:16.052Z,88.80
2022-11-08T02:58:20.225Z,88.71
2022-11-08T02:59:24.308Z,88.28
2022-11-08T03:00:28.475Z,88.08
2022-11-08T03:01:31.172Z,88.22
2022-11-08T03:02:36.037Z,88.29
2022-11-08T03:03:39.166Z,88.62
2022-11-08T03:04:42.905Z,88.89
2022-11-08T03:05:47.750Z,89.17
2022-11-08T03:06:51.752Z,89.52
2022-11-08T03:07:56.572Z,89.48
2022-11-08T03:09:00.505Z,89.35
2022-11-08T03:10:03.223Z,89.42
2022-11-08T03:11:10.055Z,89.04
2022-11-08T03:12:16.165Z,89.20
2022-11-08T03:13:18.904Z,89.09
2022-11-08T03:14:24.401Z,89.03
2022-11-08T03:15:28.450Z,89.24
2022-11-08T03:16:32.863Z,88.93
2022-11-08T03:17:36.643Z,89.05
2022-11-08T03:18:40.565Z,88.97
2022-11-08T03:19:44.898Z,88.42
2022-11-08T03:20:48.563Z,88.88
2022-11-08T03:21:52.274Z,88.86
2022-11-08T03:23:01.220Z,88.87
2022-11-08T03:24:06.378Z,88.61
2022-11-08T03:25:10.415Z,88.91
2022-11-08T03:26:14.507Z,88.81
2022-11-08T03:27:19.575Z,88.85
2022-11-08T03:28:24.727Z,88.93
2022-11-08T03:29:31.256Z,88.94
2022-11-08T03:30:34.433Z,88.76
2022-11-08T03:31:40.576Z,88.73
2022-11-08T03:32:44.633Z,88.77
2022-11-08T03:33:48.305Z,88.75
2022-11-08T03:34:50.996Z,88.73
2022-11-08T03:35:56.286Z,88.61
2022-11-08T03:36:59.306Z,88.48
2022-11-08T03:38:03.304Z,88.61
2022-11-08T03:39:07.006Z,88.41
2022-11-08T03:40:11.084Z,88.51
2022-11-08T03:41:18.028Z,88.49
2022-11-08T03:42:22.675Z,88.75
2022-11-08T03:43:28.163Z,88.55
2022-11-08T03:44:32.926Z,88.53
2022-11-08T03:45:37.326Z,88.59
2022-11-08T03:46:40.026Z,88.81
2022-11-08T03:47:45.635Z,88.64
2022-11-08T03:48:50.946Z,88.48
2022-11-08T03:49:56.091Z,88.29
2022-11-08T03:50:59.175Z,88.33
2022-11-08T03:52:04.496Z,88.51
2022-11-08T03:53:07.223Z,88.14
2022-11-08T03:54:11.633Z,88.34
2022-11-08T03:55:17.314Z,88.64
2022-11-08T03:56:22.500Z,88.56
2022-11-08T03:57:25.135Z,88.83
2022-11-08T03:58:29.223Z,88.56
2022-11-08T03:59:32.012Z,88.57
2022-11-08T04:00:35.740Z,88.29
2022-11-08T04:01:41.312Z,88.70
2022-11-08T04:02:45.634Z,88.60
2022-11-08T04:03:49.369Z,88.56
2022-11-08T04:04:54.315Z,88.70
2022-11-08T04:05:58.417Z,88.46
2022-11-08T04:07:02.235Z,88.51
2022-11-08T04:08:07.385Z,88.67
2022-11-08T04:09:14.012Z,88.68
2022-11-08T04:10:19.368Z,88.50
2022-11-08T04:11:41.756Z,88.71
2022-11-08T04:13:02.935Z,88.88
2022-11-08T04:14:24.157Z,89.13
2022-11-08T04:15:29.210Z,89.07
2022-11-08T04:16:32.645Z,89.16
2022-11-08T04:17:50.172Z,89.12
2022-11-08T04:19:11.221Z,89.49
2022-11-08T04:20:35.224Z,89.75
2022-11-08T04:21:39.175Z,89.12
2022-11-08T04:22:41.885Z,88.89
2022-11-08T04:23:49.396Z,88.84
2022-11-08T04:24:52.090Z,88.85
2022-11-08T04:25:57.058Z,89.01
2022-11-08T04:27:03.515Z,89.10
2022-11-08T04:28:09.539Z,89.11
2022-11-08T04:29:13.413Z,89.14
2022-11-08T04:30:18.888Z,89.31
2022-11-08T04:31:22.586Z,89.38
2022-11-08T04:32:25.827Z,89.30
2022-11-08T04:33:29.534Z,89.03
2022-11-08T04:34:32.245Z,89.00
2022-11-08T04:35:35.959Z,88.75
2022-11-08T04:36:41.264Z,88.96
2022-11-08T04:37:44.090Z,88.84
2022-11-08T04:38:49.744Z,88.79
2022-11-08T04:39:52.594Z,89.31
2022-11-08T04:41:02.772Z,89.19
2022-11-08T04:42:07.996Z,88.88
2022-11-08T04:43:13.697Z,89.12
2022-11-08T04:44:18.660Z,89.04
2022-11-08T04:45:22.655Z,89.10
2022-11-08T04:46:31.356Z,88.94
2022-11-08T04:47:38.928Z,89.00
2022-11-08T04:48:45.735Z,89.39
2022-11-08T04:49:50.135Z,89.27
2022-11-08T04:50:56.725Z,89.17
2022-11-08T04:51:59.393Z,89.01
2022-11-08T04:53:03.178Z,89.05
2022-11-08T04:54:10.336Z,88.86
2022-11-08T04:55:16.336Z,88.39
2022-11-08T04:56:20.756Z,88.24
2022-11-08T04:57:27.147Z,88.24
2022-11-08T04:58:30.022Z,88.50
2022-11-08T04:59:33.749Z,88.61
2022-11-08T05:00:39.355Z,88.90
2022-11-08T05:01:44.263Z,88.80
2022-11-08T05:02:47.136Z,88.85
2022-11-08T05:03:52.286Z,88.88
2022-11-08T05:04:55.506Z,89.03
2022-11-08T05:06:05.236Z,89.00
2022-11-08T05:07:10.073Z,88.81
2022-11-08T05:08:13.803Z,89.14
2022-11-08T05:09:19.266Z,88.97
2022-11-08T05:10:25.705Z,88.92
2022-11-08T05:11:32.664Z,88.74
2022-11-08T05:12:37.787Z,88.62
2022-11-08T05:13:40.666Z,88.32
2022-11-08T05:14:44.480Z,88.52
2022-11-08T05:15:58.543Z,88.61
2022-11-08T05:17:04.254Z,89.06
2022-11-08T05:18:07.327Z,89.07
2022-11-08T05:19:13.345Z,89.13
2022-11-08T05:20:34.637Z,88.73
2022-11-08T05:21:55.577Z,88.78
2022-11-08T05:23:21.463Z,89.10
2022-11-08T05:24:27.306Z,89.01
2022-11-08T05:25:32.287Z,89.22
2022-11-08T05:26:37.848Z,89.12
2022-11-08T05:27:41.944Z,88.71
2022-11-08T05:28:45.825Z,88.76
2022-11-08T05:29:48.528Z,88.46
2022-11-08T05:30:55.974Z,88.58
2022-11-08T05:31:58.615Z,88.69
2022-11-08T05:33:02.375Z,88.63
2022-11-08T05:34:07.549Z,88.80
2022-11-08T05:35:10.317Z,88.78
2022-11-08T05:36:15.555Z,88.79
2022-11-08T05:37:18.206Z,88.69
2022-11-08T05:38:22.546Z,88.54
2022-11-08T05:39:31.797Z,88.71
2022-11-08T05:40:35.896Z,88.78
2022-11-08T05:41:38.576Z,88.70
2022-11-08T05:42:43.803Z,88.45
2022-11-08T05:43:48.092Z,88.38
2022-11-08T05:44:51.843Z,88.45
2022-11-08T05:45:56.227Z,88.35
2022-11-08T05:47:00.035Z,88.36
2022-11-08T05:48:04.164Z,88.55
2022-11-08T05:49:11.155Z,88.61
2022-11-08T05:50:19.274Z,88.74
2022-11-08T05:51:23.348Z,88.94
2022-11-08T05:52:26.363Z,88.90
2022-11-08T05:53:30.114Z,89.05
2022-11-08T05:54:32.817Z,88.87
2022-11-08T05:55:36.574Z,88.77
2022-11-08T05:56:42.412Z,88.87
2022-11-08T05:57:47.703Z,88.98
2022-11-08T05:58:50.426Z,89.06
2022-11-08T05:59:54.217Z,88.73
2022-11-08T06:01:00.724Z,88.70
2022-11-08T06:02:04.585Z,88.92
2022-11-08T06:03:07.931Z,89.11
2022-11-08T06:04:11.715Z,89.45
2022-11-08T06:05:14.842Z,89.51
2022-11-08T06:06:22.386Z,89.74
2022-11-08T06:07:25.101Z,90.07
2022-11-08T06:08:28.813Z,90.51
2022-11-08T06:09:31.424Z,90.79
2022-11-08T06:10:35.184Z,91.02
2022-11-08T06:11:38.495Z,91.29
2022-11-08T06:12:42.309Z,91.34
2022-11-08T06:13:46.424Z,91.73
2022-11-08T06:14:50.264Z,92.04
2022-11-08T06:15:54.297Z,91.95
2022-11-08T06:16:57.059Z,92.24
2022-11-08T06:18:04.024Z,92.34
2022-11-08T06:19:07.827Z,92.19
2022-11-08T06:20:13.364Z,92.31
2022-11-08T06:21:20.816Z,92.64
2022-11-08T06:22:23.551Z,93.12
2022-11-08T06:23:30.395Z,93.60
2022-11-08T06:24:33.103Z,94.46
2022-11-08T06:25:36.775Z,94.81
2022-11-08T06:26:40.121Z,94.48
2022-11-08T06:27:44.324Z,94.58
2022-11-08T06:28:48.425Z,94.47
2022-11-08T06:29:52.174Z,93.82
2022-11-08T06:30:54.935Z,93.59
2022-11-08T06:31:58.988Z,92.88
2022-11-08T06:33:01.961Z,93.10
2022-11-08T06:34:05.735Z,92.97
2022-11-08T06:35:10.027Z,92.79
2022-11-08T06:36:16.085Z,92.90
2022-11-08T06:37:21.704Z,92.86
2022-11-08T06:38:25.920Z,93.24
2022-11-08T06:39:33.565Z,93.63
2022-11-08T06:40:39.487Z,94.25
2022-11-08T06:41:43.235Z,94.82
2022-11-08T06:42:47.069Z,94.75
2022-11-08T06:43:51.171Z,94.70
2022-11-08T06:44:54.875Z,94.69
2022-11-08T06:46:01.228Z,94.89
2022-11-08T06:47:05.106Z,94.78
2022-11-08T06:48:08.864Z,95.00
2022-11-08T06:49:12.655Z,95.17
2022-11-08T06:50:15.536Z,95.86
2022-11-08T06:51:19.634Z,95.40
2022-11-08T06:52:22.364Z,95.58
2022-11-08T06:53:26.164Z,95.66
2022-11-08T06:54:29.953Z,95.56
2022-11-08T06:55:33.143Z,95.54
2022-11-08T06:56:37.395Z,95.28
2022-11-08T06:57:41.754Z,95.31
2022-11-08T06:58:44.732Z,96.11
2022-11-08T06:59:49.915Z,96.86
2022-11-08T07:00:52.644Z,97.32
2022-11-08T07:01:57.291Z,97.16
2022-11-08T07:03:03.050Z,97.26
2022-11-08T07:04:07.315Z,96.94
2022-11-08T07:05:10.518Z,96.48
2022-11-08T07:06:14.297Z,96.56
2022-11-08T07:07:18.027Z,97.03
2022-11-08T07:08:24.279Z,96.85
2022-11-08T07:09:28.165Z,96.56
2022-11-08T07:10:35.306Z,96.86
2022-11-08T07:11:40.446Z,96.57
2022-11-08T07:12:44.292Z,96.51
2022-11-08T07:13:49.535Z,96.56
2022-11-08T07:14:54.676Z,96.80
2022-11-08T07:16:02.979Z,97.12
2022-11-08T07:17:07.333Z,97.08
2022-11-08T07:18:12.038Z,97.10
2022-11-08T07:19:16.298Z,97.30
2022-11-08T07:20:18.966Z,97.46
2022-11-08T07:21:23.046Z,96.82
2022-11-08T07:22:26.513Z,96.82
2022-11-08T07:23:30.534Z,96.91
2022-11-08T07:24:34.275Z,97.15
2022-11-08T07:25:37.407Z,97.56
2022-11-08T07:26:41.235Z,97.93
2022-11-08T07:27:44.012Z,98.13
2022-11-08T07:28:47.777Z,97.91
2022-11-08T07:29:51.543Z,98.01
2022-11-08T07:30:59.644Z,97.80
2022-11-08T07:32:02.446Z,97.58
2022-11-08T07:33:06.234Z,97.25
2022-11-08T07:34:09.914Z,97.60
2022-11-08T07:35:12.690Z,97.23
2022-11-08T07:36:16.549Z,97.69
2022-11-08T07:37:19.234Z,97.59
2022-11-08T07:38:23.298Z,97.48
2022-11-08T07:39:27.086Z,97.83
2022-11-08T07:40:29.775Z,98.09
2022-11-08T07:41:33.514Z,97.37
2022-11-08T07:43:04.831Z,97.88
2022-11-08T07:44:00.435Z,97.83
2022-11-08T07:45:03.346Z,97.78
2022-11-08T07:46:08.797Z,97.35
2022-11-08T07:47:12.401Z,97.51
2022-11-08T07:48:15.116Z,97.33
2022-11-08T07:49:19.063Z,96.92
2022-11-08T07:50:22.475Z,97.21
2022-11-08T07:51:26.225Z,97.66
2022-11-08T07:52:28.936Z,97.44
2022-11-08T07:53:32.705Z,97.41
2022-11-08T07:54:35.503Z,97.06
2022-11-08T07:55:39.681Z,97.31
2022-11-08T07:56:43.538Z,97.72
2022-11-08T07:57:46.340Z,97.36
2022-11-08T07:58:50.386Z,98.06
2022-11-08T07:59:53.355Z,97.71
2022-11-08T08:01:02.126Z,97.88
2022-11-08T08:02:06.422Z,97.67
2022-11-08T08:03:12.047Z,98.17
2022-11-08T08:04:16.264Z,98.28
2022-11-08T08:05:18.966Z,98.23
2022-11-08T08:06:23.554Z,97.98
2022-11-08T08:07:26.298Z,97.90
2022-11-08T08:08:31.076Z,97.66
2022-11-08T08:09:34.946Z,97.64
2022-11-08T08:10:38.795Z,98.00
2022-11-08T08:11:42.485Z,98.08
2022-11-08T08:12:45.026Z,97.23
2022-11-08T08:13:48.584Z,97.68
2022-11-08T08:14:51.287Z,97.90
2022-11-08T08:15:54.965Z,97.15
2022-11-08T08:16:58.767Z,97.62
2022-11-08T08:18:05.285Z,97.05
2022-11-08T08:19:09.125Z,97.69
2022-11-08T08:20:12.857Z,97.21
2022-11-08T08:21:16.776Z,97.10
2022-11-08T08:22:19.409Z,97.27
2022-11-08T08:23:23.368Z,97.48
2022-11-08T08:24:26.835Z,97.51
2022-11-08T08:25:31.720Z,97.57
2022-11-08T08:26:35.595Z,97.38
2022-11-08T08:27:38.503Z,97.18
2022-11-08T08:28:42.204Z,96.75
2022-11-08T08:29:45.301Z,96.85
2022-11-08T08:30:49.269Z,96.81
2022-11-08T08:31:52.976Z,96.48
2022-11-08T08:34:28.936Z,96.50
2022-11-08T08:35:31.577Z,96.44
2022-11-08T08:36:35.296Z,96.10
2022-11-08T08:37:37.995Z,95.95
2022-11-08T08:38:44.675Z,95.99
2022-11-08T08:39:48.296Z,95.85
2022-11-08T08:40:52.151Z,95.67
2022-11-08T08:41:54.836Z,95.28
2022-11-08T08:42:59.872Z,95.33
2022-11-08T08:44:03.619Z,95.10
2022-11-08T08:45:13.520Z,94.49
2022-11-08T08:46:18.471Z,94.72
2022-11-08T08:47:21.154Z,94.97
2022-11-08T08:48:26.323Z,94.79
2022-11-08T08:49:29.828Z,94.08
2022-11-08T08:50:34.814Z,94.04
2022-11-08T08:51:38.476Z,94.04
2022-11-08T08:52:42.063Z,93.90
2022-11-08T08:53:45.067Z,93.71
2022-11-08T08:54:49.232Z,94.05
2022-11-08T08:55:53.792Z,93.29
2022-11-08T08:56:57.716Z,92.99
2022-11-08T08:58:01.422Z,93.28
2022-11-08T09:01:53.147Z,92.20
2022-11-08T09:02:56.094Z,92.26
2022-11-08T09:04:01.421Z,91.59
2022-11-08T09:05:05.704Z,92.01
2022-11-08T09:06:09.736Z,91.97
2022-11-08T09:07:13.576Z,91.81
2022-11-08T09:08:17.509Z,91.45
2022-11-08T09:09:21.278Z,91.50
2022-11-08T09:10:25.117Z,91.01
2022-11-08T09:11:28.855Z,91.20
2022-11-08T09:12:31.777Z,90.67
2022-11-08T09:13:35.578Z,91.34
2022-11-08T09:14:39.205Z,90.79
2022-11-08T09:15:41.855Z,90.88
2022-11-08T09:16:45.646Z,90.53
2022-11-08T09:17:49.726Z,90.59
2022-11-08T09:18:53.592Z,90.04
2022-11-08T09:19:58.917Z,90.62
2022-11-08T09:21:04.578Z,89.93
2022-11-08T09:22:08.383Z,90.06
2022-11-08T09:23:11.371Z,90.12
2022-11-08T09:24:15.182Z,89.51
2022-11-08T09:25:17.967Z,89.27
2022-11-08T09:26:21.747Z,89.02
2022-11-08T09:27:24.497Z,89.07
2022-11-08T09:28:31.252Z,89.82
2022-11-08T09:29:35.706Z,89.58
2022-11-08T09:30:39.406Z,88.42
2022-11-08T09:31:43.128Z,89.06
2022-11-08T09:33:00.355Z,88.48
2022-11-08T09:34:04.785Z,88.75
2022-11-08T09:35:10.066Z,88.83
2022-11-08T09:36:15.128Z,87.97
2022-11-08T09:37:18.915Z,88.52
2022-11-08T09:38:23.182Z,87.84
2022-11-08T09:39:25.880Z,87.47
2022-11-08T09:40:33.652Z,87.89
2022-11-08T09:41:51.504Z,87.50
2022-11-08T09:43:05.524Z,87.36
2022-11-08T09:44:15.734Z,86.66
2022-11-08T09:45:30.536Z,85.98
2022-11-08T09:46:40.756Z,85.95
2022-11-08T09:47:47.799Z,85.54
2022-11-08T09:48:56.635Z,84.35
2022-11-08T09:50:02.097Z,84.85
2022-11-08T09:51:09.428Z,84.71
2022-11-08T09:52:24.706Z,83.11
2022-11-08T09:53:35.548Z,83.78
2022-11-08T09:54:41.622Z,82.75
2022-11-08T09:55:47.854Z,82.49
2022-11-08T09:56:52.617Z,82.96
2022-11-08T09:58:01.451Z,82.66
2022-11-08T09:59:10.729Z,82.73
2022-11-08T10:00:14.512Z,81.68
2022-11-08T10:01:21.119Z,81.88
2022-11-08T10:02:27.559Z,81.42
2022-11-08T10:03:31.764Z,81.51
2022-11-08T10:04:38.204Z,81.18
2022-11-08T10:05:44.026Z,80.61
2022-11-08T10:07:02.752Z,80.83
2022-11-08T10:08:12.450Z,80.42
2022-11-08T10:09:30.737Z,79.58
2022-11-08T10:11:08.275Z,79.83
2022-11-08T10:12:19.459Z,79.37
2022-11-08T10:13:27.603Z,79.39
2022-11-08T10:14:49.031Z,79.41
2022-11-08T10:16:05.899Z,79.94
2022-11-08T10:17:32.867Z,79.35
2022-11-08T10:18:43.226Z,79.39
2022-11-08T10:20:06.660Z,79.59
2022-11-08T10:21:20.001Z,79.73
2022-11-08T10:22:32.165Z,79.17
2022-11-08T10:23:44.070Z,79.17
2022-11-08T10:24:54.155Z,79.10
2022-11-08T10:26:01.258Z,78.71
2022-11-08T10:27:07.203Z,77.97
2022-11-08T10:28:13.521Z,77.83
2022-11-08T10:29:21.732Z,78.05
2022-11-08T10:30:26.807Z,77.95
2022-11-08T10:31:33.255Z,77.62
2022-11-08T10:32:36.577Z,76.92
2022-11-08T10:33:44.651Z,76.57
2022-11-08T10:34:53.444Z,76.83
2022-11-08T10:36:02.358Z,76.34
2022-11-08T10:37:10.627Z,76.33
2022-11-08T10:38:20.838Z,76.50
2022-11-08T10:39:27.346Z,76.32
2022-11-08T10:40:39.292Z,76.08
2022-11-08T10:41:46.353Z,76.13
2022-11-08T10:42:55.246Z,76.81
2022-11-08T10:44:04.777Z,76.24
2022-11-08T10:45:10.927Z,75.73
2022-11-08T10:46:39.824Z,75.74
2022-11-08T10:47:46.267Z,75.90
2022-11-08T10:48:50.094Z,75.60
2022-11-08T10:49:57.225Z,75.71
2022-11-08T10:51:03.656Z,75.19
2022-11-08T10:52:19.193Z,74.55
2022-11-08T10:53:27.840Z,74.00
2022-11-08T10:54:45.920Z,74.11
2022-11-08T10:55:52.094Z,74.08
2022-11-08T10:56:56.041Z,74.10
2022-11-08T10:57:59.886Z,74.64
2022-11-08T10:59:03.795Z,74.28
2022-11-08T11:00:27.665Z,73.85
2022-11-08T11:01:30.391Z,73.79
2022-11-08T11:02:36.303Z,73.74
2022-11-08T11:03:40.064Z,73.21
2022-11-08T11:04:42.805Z,73.41
2022-11-08T11:06:00.924Z,72.21
2022-11-08T11:07:04.575Z,73.46
2022-11-08T11:08:19.368Z,73.63
2022-11-08T11:09:28.655Z,73.01
2022-11-08T11:10:33.345Z,73.07
2022-11-08T11:11:38.764Z,72.41
2022-11-08T11:12:41.819Z,72.58
2022-11-08T11:13:45.717Z,72.44
2022-11-08T11:14:57.046Z,71.82
2022-11-08T11:16:03.346Z,72.03
2022-11-08T11:17:15.399Z,72.17
2022-11-08T11:18:27.185Z,72.27
2022-11-08T11:19:31.727Z,72.41
2022-11-08T11:20:35.585Z,72.32
2022-11-08T11:21:39.904Z,71.53
2022-11-08T11:22:47.422Z,71.96
2022-11-08T11:23:53.246Z,70.81
2022-11-08T11:24:58.661Z,71.39
2022-11-08T11:26:01.506Z,71.25
2022-11-08T11:27:07.096Z,70.39
2022-11-08T11:28:15.672Z,70.48
2022-11-08T11:29:22.722Z,70.51
2022-11-08T11:30:33.948Z,70.89
2022-11-08T11:31:38.630Z,70.29
2022-11-08T11:32:44.133Z,70.68
2022-11-08T11:33:48.365Z,70.36
2022-11-08T11:34:56.925Z,69.61
2022-11-08T11:36:13.793Z,67.64
2022-11-08T11:37:55.878Z,69.00
2022-11-08T11:39:01.707Z,69.16
2022-11-08T11:40:13.684Z,68.68
2022-11-08T11:41:19.783Z,69.03
2022-11-08T11:44:02.344Z,68.87
2022-11-08T11:45:13.108Z,68.97
2022-11-08T11:46:22.174Z,67.81
2022-11-08T11:47:30.454Z,68.67
2022-11-08T11:48:38.474Z,67.86
2022-11-08T11:49:45.086Z,68.49
2022-11-08T11:50:50.178Z,67.77
2022-11-08T11:51:55.218Z,67.31
2022-11-08T11:52:59.286Z,67.32
2022-11-08T11:54:04.877Z,66.09
2022-11-08T11:55:13.343Z,66.76
2022-11-08T11:56:26.939Z,65.75
2022-11-08T11:57:36.655Z,66.99
2022-11-08T11:59:11.742Z,65.72
2022-11-08T12:00:16.411Z,66.62
2022-11-08T12:01:26.664Z,66.50
2022-11-08T12:02:59.904Z,64.61
2022-11-08T12:04:25.632Z,64.70
2022-11-08T12:05:36.765Z,66.33
2022-11-08T12:06:46.010Z,66.30
2022-11-08T12:07:56.007Z,65.78
2022-11-08T12:09:14.545Z,64.97
2022-11-08T12:10:27.415Z,65.89
2022-11-08T12:11:38.662Z,65.74
2022-11-08T12:12:50.408Z,65.91
2022-11-08T12:14:07.015Z,65.75
2022-11-08T12:15:17.414Z,65.06
2022-11-08T12:16:25.173Z,65.23
2022-11-08T12:17:49.283Z,64.20
2022-11-08T12:19:03.274Z,65.36
2022-11-08T12:20:20.422Z,64.63
2022-11-08T12:21:31.354Z,65.24
2022-11-08T12:22:49.184Z,65.49
2022-11-08T12:24:01.794Z,65.13
2022-11-08T12:25:08.545Z,64.81
2022-11-08T12:26:19.635Z,64.66
2022-11-08T12:27:31.824Z,63.94
2022-11-08T12:28:47.395Z,64.83
2022-11-08T12:29:55.446Z,64.75
2022-11-08T12:31:04.994Z,64.28
2022-11-08T12:32:24.141Z,63.95
2022-11-08T12:33:36.025Z,64.17
2022-11-08T12:34:47.264Z,64.23
2022-11-08T12:36:02.724Z,64.11
2022-11-08T12:37:17.085Z,64.59
2022-11-08T12:38:26.873Z,64.42
2022-11-08T12:39:36.054Z,63.70
2022-11-08T12:40:44.700Z,63.62
2022-11-08T12:41:55.892Z,63.17
2022-11-08T12:43:12.252Z,62.09
2022-11-08T12:44:41.144Z,62.37
2022-11-08T12:45:53.362Z,63.34
2022-11-08T12:47:07.593Z,63.24
2022-11-08T12:48:21.911Z,63.29
2022-11-08T12:49:34.940Z,62.70
2022-11-08T12:50:44.974Z,62.30
2022-11-08T12:52:00.878Z,61.96
2022-11-08T12:53:48.753Z,61.37
2022-11-08T12:54:55.715Z,62.10
2022-11-08T12:56:00.136Z,61.76
2022-11-08T12:57:10.555Z,61.56
2022-11-08T12:58:24.943Z,60.97
2022-11-08T12:59:31.615Z,60.72
2022-11-08T13:00:36.159Z,60.60
2022-11-08T13:01:38.961Z,59.66
2022-11-08T13:02:44.022Z,59.71
2022-11-08T13:04:06.687Z,59.71
2022-11-08T13:05:13.811Z,60.24
2022-11-08T13:06:22.610Z,59.86
2022-11-08T13:07:35.532Z,59.74
2022-11-08T13:08:44.609Z,59.80
2022-11-08T13:09:53.200Z,59.96
2022-11-08T13:11:00.153Z,59.21
2022-11-08T13:12:14.735Z,59.08
2022-11-08T13:13:27.463Z,58.78
2022-11-08T13:14:31.484Z,58.86
2022-11-08T13:15:35.242Z,58.55
2022-11-08T13:16:40.232Z,58.12
2022-11-08T13:18:25.430Z,57.74
2022-11-08T13:19:30.503Z,58.28
2022-11-08T13:20:42.051Z,58.08
2022-11-08T13:21:46.297Z,58.00
2022-11-08T13:23:00.639Z,57.40
2022-11-08T13:24:43.948Z,57.03
2022-11-08T13:25:49.034Z,57.71
2022-11-08T13:26:55.771Z,57.48
2022-11-08T13:28:37.381Z,56.91
2022-11-08T13:29:41.126Z,57.33
2022-11-08T13:30:44.288Z,56.99
2022-11-08T13:31:51.762Z,56.65
2022-11-08T13:33:00.393Z,56.40
2022-11-08T13:34:26.015Z,56.65
2022-11-08T13:35:34.116Z,56.72
2022-11-08T13:36:47.472Z,56.84
2022-11-08T13:38:01.914Z,56.36
2022-11-08T13:39:20.502Z,55.86
2022-11-08T13:40:45.924Z,55.42
2022-11-08T13:42:05.695Z,54.96
2022-11-08T13:43:25.683Z,54.97
2022-11-08T13:45:00.968Z,55.13
2022-11-08T13:46:37.535Z,54.83
2022-11-08T13:47:55.835Z,55.69
2022-11-08T13:49:07.413Z,55.67
2022-11-08T13:50:48.733Z,55.17
2022-11-08T13:52:45.923Z,55.21
2022-11-08T13:53:51.686Z,55.93
2022-11-08T13:54:56.065Z,56.31
2022-11-08T13:56:09.206Z,56.36
2022-11-08T13:57:18.966Z,56.52
2022-11-08T13:58:36.402Z,56.55
2022-11-08T13:59:55.513Z,56.81
2022-11-08T14:00:59.806Z,56.99
2022-11-08T14:02:04.249Z,56.89
2022-11-08T14:03:43.624Z,56.78
2022-11-08T14:04:47.588Z,56.82
2022-11-08T14:05:51.773Z,56.79
2022-11-08T14:07:03.097Z,56.48
2022-11-08T14:08:21.625Z,56.19
2022-11-08T14:09:33.774Z,56.48
2022-11-08T14:10:40.491Z,56.57
2022-11-08T14:11:52.465Z,56.68
2022-11-08T14:13:00.834Z,56.44
2022-11-08T14:14:35.974Z,56.29
2022-11-08T14:15:44.408Z,56.75
2022-11-08T14:17:02.521Z,56.75
2022-11-08T14:18:07.785Z,56.62
2022-11-08T14:19:23.634Z,56.74
2022-11-08T14:20:35.041Z,56.60
2022-11-08T14:21:37.773Z,57.33
2022-11-08T14:22:49.853Z,57.84
2022-11-08T14:23:53.167Z,57.70
2022-11-08T14:25:01.581Z,57.86
2022-11-08T14:26:07.774Z,57.93
2022-11-08T14:27:14.213Z,58.31
2022-11-08T14:28:26.146Z,57.89
2022-11-08T14:29:29.945Z,58.16
2022-11-08T14:30:35.045Z,58.39